createdAt,value
2022-12-31T00:01:52.309Z,99661.69
2022-12-31T00:03:55.957Z,99659.09
2022-12-31T00:05:57.977Z,99659.97
2022-12-31T00:08:00.296Z,99668.56
2022-12-31T00:10:03.190Z,99672.00
2022-12-31T00:12:05.556Z,99665.13
2022-12-31T00:14:08.011Z,99660.81
2022-12-31T00:16:14.378Z,99662.56
2022-12-31T00:18:18.657Z,99674.59
2022-12-31T00:20:20.491Z,99647.06
2022-12-31T00:22:22.317Z,99649.66
2022-12-31T00:24:24.291Z,99653.06
2022-12-31T00:26:30.182Z,99674.56
2022-12-31T00:28:32.604Z,99683.19
2022-12-31T00:30:34.592Z,99674.59
2022-12-31T00:32:36.596Z,99672.88
2022-12-31T00:34:38.449Z,99668.56
2022-12-31T00:36:42.780Z,99656.50
2022-12-31T00:38:46.607Z,99653.97
2022-12-31T00:40:48.755Z,99651.34
2022-12-31T00:42:50.676Z,99659.09
2022-12-31T00:44:52.557Z,99669.41
2022-12-31T00:46:54.516Z,99669.41
2022-12-31T00:48:56.497Z,99669.41
2022-12-31T00:50:59.476Z,99691.75
2022-12-31T00:53:01.469Z,99682.28
2022-12-31T00:55:03.526Z,99684.91
2022-12-31T00:57:05.555Z,99687.47
2022-12-31T00:59:07.469Z,99698.66
2022-12-31T01:01:17.928Z,99683.16
2022-12-31T01:03:20.297Z,99690.03
2022-12-31T01:05:22.355Z,99678.84
2022-12-31T01:07:24.305Z,99691.75
2022-12-31T01:09:27.706Z,99701.22
2022-12-31T01:11:29.774Z,99682.31
2022-12-31T01:13:31.809Z,99666.00
2022-12-31T01:15:36.025Z,99667.66
2022-12-31T01:17:37.895Z,99672.00
2022-12-31T01:19:39.701Z,99649.66
2022-12-31T01:21:42.518Z,99635.03
2022-12-31T01:23:47.842Z,99638.47
2022-12-31T01:25:49.689Z,99637.63
2022-12-31T01:27:51.645Z,99651.34
2022-12-31T01:29:53.465Z,99630.75
2022-12-31T01:31:55.554Z,99628.16
2022-12-31T01:33:58.426Z,99654.81
2022-12-31T01:36:06.207Z,99661.69
2022-12-31T01:38:09.886Z,99671.16
2022-12-31T01:40:11.966Z,99680.59
2022-12-31T01:42:14.129Z,99688.34
2022-12-31T01:44:25.847Z,99684.03
2022-12-31T01:46:37.869Z,99673.72
2022-12-31T01:48:40.286Z,99658.25
2022-12-31T01:50:43.325Z,99669.44
2022-12-31T01:52:50.356Z,99677.19
2022-12-31T01:55:00.344Z,99690.94
2022-12-31T01:57:04.010Z,99694.34
2022-12-31T01:59:09.664Z,99685.75
2022-12-31T02:01:18.085Z,99677.16
2022-12-31T02:03:24.216Z,99691.75
2022-12-31T02:05:33.725Z,99677.16
2022-12-31T02:07:35.624Z,99679.75
2022-12-31T02:09:40.137Z,99670.28
2022-12-31T02:11:42.037Z,99675.44
2022-12-31T02:13:44.134Z,99672.00
2022-12-31T02:15:58.894Z,99678.03
2022-12-31T02:18:17.500Z,99680.59
2022-12-31T02:20:21.683Z,99673.75
2022-12-31T02:22:35.216Z,99666.84
2022-12-31T02:24:47.542Z,99663.44
2022-12-31T02:26:55.038Z,99668.59
2022-12-31T02:29:09.430Z,99675.47
2022-12-31T02:31:21.756Z,99675.44
2022-12-31T02:33:28.677Z,99666.00
2022-12-31T02:35:40.962Z,99672.84
2022-12-31T02:37:46.628Z,99687.47
2022-12-31T02:39:49.805Z,99690.91
2022-12-31T02:41:52.120Z,99691.78
2022-12-31T02:43:53.857Z,99671.16
2022-12-31T02:46:05.930Z,99679.75
2022-12-31T02:48:17.164Z,99678.88
2022-12-31T02:50:23.464Z,99688.34
2022-12-31T02:52:37.679Z,99689.19
2022-12-31T02:54:53.069Z,99691.75
2022-12-31T02:57:10.219Z,99693.47
2022-12-31T02:59:31.388Z,99690.91
2022-12-31T03:01:46.338Z,99696.06
2022-12-31T03:03:48.188Z,99694.34
2022-12-31T03:05:50.623Z,99699.50
2022-12-31T03:07:53.490Z,99699.50
2022-12-31T03:09:56.457Z,99697.78
2022-12-31T03:12:19.296Z,99699.47
2022-12-31T03:14:21.010Z,99681.47
2022-12-31T03:16:22.728Z,99673.72
2022-12-31T03:18:44.404Z,99680.59
2022-12-31T03:20:59.415Z,99666.84
2022-12-31T03:23:01.788Z,99665.13
2022-12-31T03:25:13.349Z,99663.44
2022-12-31T03:27:15.034Z,99657.41
2022-12-31T03:29:16.784Z,99658.28
2022-12-31T03:31:18.705Z,99644.56
2022-12-31T03:33:21.109Z,99646.25
2022-12-31T03:35:25.157Z,99639.38
2022-12-31T03:37:26.863Z,99621.34
2022-12-31T03:39:28.569Z,99633.38
2022-12-31T03:41:30.356Z,99629.09
2022-12-31T03:43:32.298Z,99630.81
2022-12-31T03:45:34.619Z,99630.78
2022-12-31T03:47:36.573Z,99607.63
2022-12-31T03:49:38.261Z,99606.75
2022-12-31T03:51:39.958Z,99611.06
2022-12-31T03:53:41.649Z,99608.47
2022-12-31T03:55:43.765Z,99603.31
2022-12-31T03:57:45.618Z,99610.19
2022-12-31T03:59:47.393Z,99610.19
2022-12-31T04:01:49.332Z,99605.91
2022-12-31T04:03:51.079Z,99594.75
2022-12-31T04:05:54.605Z,99595.63
2022-12-31T04:07:56.584Z,99586.19
2022-12-31T04:09:58.520Z,99584.44
2022-12-31T04:12:00.172Z,99551.84
2022-12-31T04:14:02.029Z,99559.53
2022-12-31T04:16:03.916Z,99556.97
2022-12-31T04:18:05.712Z,99549.25
2022-12-31T04:20:08.510Z,99547.53
2022-12-31T04:22:10.148Z,99554.41
2022-12-31T04:24:12.168Z,99540.63
2022-12-31T04:26:13.938Z,99544.09
2022-12-31T04:28:15.569Z,99555.22
2022-12-31T04:30:17.239Z,99564.69
2022-12-31T04:32:18.910Z,99556.94
2022-12-31T04:34:20.754Z,99563.84
2022-12-31T04:36:22.626Z,99561.25
2022-12-31T04:38:25.259Z,99557.81
2022-12-31T04:40:26.924Z,99553.50
2022-12-31T04:42:28.619Z,99565.53
2022-12-31T04:44:31.685Z,99577.53
2022-12-31T04:46:33.869Z,99557.75
2022-12-31T04:48:35.895Z,99576.66
2022-12-31T04:50:37.568Z,99596.41
2022-12-31T04:52:42.902Z,99574.06
2022-12-31T04:54:44.828Z,99567.16
2022-12-31T04:56:46.568Z,99597.22
2022-12-31T04:58:48.244Z,99562.84
2022-12-31T05:00:54.646Z,99562.81
2022-12-31T05:02:56.421Z,99577.47
2022-12-31T05:04:58.090Z,99574.88
2022-12-31T05:06:59.789Z,99565.34
2022-12-31T05:09:01.866Z,99567.84
2022-12-31T05:11:03.991Z,99564.41
2022-12-31T05:13:05.734Z,99606.50
2022-12-31T05:15:08.320Z,99572.06
2022-12-31T05:17:10.027Z,99570.34
2022-12-31T05:19:11.799Z,99578.88
2022-12-31T05:21:20.699Z,99587.41
2022-12-31T05:23:22.391Z,99567.63
2022-12-31T05:25:24.557Z,99586.50
2022-12-31T05:27:28.141Z,99598.53
2022-12-31T05:29:29.818Z,99573.47
2022-12-31T05:31:31.539Z,99573.41
2022-12-31T05:33:33.294Z,99581.16
2022-12-31T05:35:35.081Z,99612.03
2022-12-31T05:37:36.777Z,99590.53
2022-12-31T05:39:38.456Z,99583.50
2022-12-31T05:41:40.141Z,99590.41
2022-12-31T05:43:41.828Z,99581.78
2022-12-31T05:45:45.972Z,99580.13
2022-12-31T05:47:47.659Z,99598.91
2022-12-31T05:49:49.325Z,99571.28
2022-12-31T05:51:50.975Z,99603.16
2022-12-31T05:53:52.895Z,99583.31
2022-12-31T05:55:54.583Z,99587.56
2022-12-31T05:57:56.323Z,99592.66
2022-12-31T05:59:58.011Z,99604.69
2022-12-31T06:01:59.736Z,99590.84
2022-12-31T06:04:01.453Z,99599.50
2022-12-31T06:06:03.245Z,99599.53
2022-12-31T06:08:05.228Z,99621.06
2022-12-31T06:10:07.932Z,99613.38
2022-12-31T06:12:10.021Z,99623.75
2022-12-31T06:14:12.663Z,99655.63
2022-12-31T06:16:14.457Z,99668.38
2022-12-31T06:18:16.145Z,99652.81
2022-12-31T06:20:18.293Z,99652.06
2022-12-31T06:22:19.997Z,99657.22
2022-12-31T06:24:21.815Z,99656.41
2022-12-31T06:26:23.480Z,99646.75
2022-12-31T06:28:25.201Z,99661.41
2022-12-31T06:30:26.889Z,99641.72
2022-12-31T06:32:28.611Z,99660.50
2022-12-31T06:34:30.403Z,99665.81
2022-12-31T06:36:32.059Z,99657.06
2022-12-31T06:38:36.800Z,99658.06
2022-12-31T06:40:38.478Z,99661.53
2022-12-31T06:42:42.375Z,99696.97
2022-12-31T06:44:44.068Z,99636.56
2022-12-31T06:46:45.894Z,99653.69
2022-12-31T06:48:47.672Z,99645.06
2022-12-31T06:50:49.591Z,99697.66
2022-12-31T06:52:51.444Z,99643.41
2022-12-31T06:54:53.539Z,99643.31
2022-12-31T06:56:55.655Z,99656.25
2022-12-31T06:58:57.875Z,99664.88
2022-12-31T07:01:10.486Z,99670.91
2022-12-31T07:03:38.144Z,99679.47
2022-12-31T07:05:54.056Z,99660.59
2022-12-31T07:08:03.444Z,99659.81
2022-12-31T07:10:20.593Z,99672.75
2022-12-31T07:12:45.512Z,99672.84
2022-12-31T07:15:00.240Z,99680.66
2022-12-31T07:17:12.210Z,99681.34
2022-12-31T07:19:34.115Z,99675.31
2022-12-31T07:21:39.257Z,99677.84
2022-12-31T07:23:42.446Z,99667.56
2022-12-31T07:25:54.926Z,99670.13
2022-12-31T07:28:03.010Z,99678.81
2022-12-31T07:30:17.971Z,99691.72
2022-12-31T07:32:24.429Z,99710.66
2022-12-31T07:34:41.815Z,99707.16
2022-12-31T07:36:54.913Z,99703.78
2022-12-31T07:39:08.186Z,99701.19
2022-12-31T07:41:23.849Z,99704.59
2022-12-31T07:43:41.155Z,99718.47
2022-12-31T07:45:53.789Z,99729.59
2022-12-31T07:48:02.118Z,99715.84
2022-12-31T07:50:05.840Z,99714.19
2022-12-31T07:52:08.819Z,99719.34
2022-12-31T07:54:14.132Z,99724.44
2022-12-31T07:56:17.484Z,99727.81
2022-12-31T07:58:32.005Z,99712.47
2022-12-31T08:00:34.304Z,99720.97
2022-12-31T08:03:01.159Z,99767.59
2022-12-31T08:05:09.263Z,99739.22
2022-12-31T08:07:21.279Z,99748.66
2022-12-31T08:09:37.759Z,99740.97
2022-12-31T08:11:58.417Z,99803.84
2022-12-31T08:14:03.107Z,99766.84
2022-12-31T08:16:06.746Z,99765.00
2022-12-31T08:18:09.918Z,99773.75
2022-12-31T08:20:15.646Z,99799.56
2022-12-31T08:22:27.509Z,99785.63
2022-12-31T08:24:40.196Z,99777.00
2022-12-31T08:26:55.554Z,99811.47
2022-12-31T08:29:08.533Z,99805.47
2022-12-31T08:31:22.014Z,99810.63
2022-12-31T08:33:29.299Z,99822.78
2022-12-31T08:35:36.749Z,99804.69
2022-12-31T08:37:44.092Z,99808.06
2022-12-31T08:40:06.929Z,99812.50
2022-12-31T08:42:24.740Z,99828.78
2022-12-31T08:44:39.565Z,99802.09
2022-12-31T08:47:00.512Z,99837.41
2022-12-31T08:49:04.161Z,99839.88
2022-12-31T08:51:13.516Z,99841.63
2022-12-31T08:53:16.032Z,99833.00
2022-12-31T08:55:19.999Z,99835.56
2022-12-31T08:57:42.472Z,99837.31
2022-12-31T08:59:45.711Z,99854.50
2022-12-31T09:01:47.929Z,99871.03
2022-12-31T09:04:06.132Z,99857.31
2022-12-31T09:06:14.099Z,99846.81
2022-12-31T09:08:26.608Z,99865.75
2022-12-31T09:10:40.420Z,99851.13
2022-12-31T09:12:58.080Z,99843.31
2022-12-31T09:15:15.848Z,99834.72
2022-12-31T09:17:35.540Z,99850.28
2022-12-31T09:19:38.396Z,99845.94
2022-12-31T09:21:46.736Z,99851.00
2022-12-31T09:23:49.554Z,99851.84
2022-12-31T09:26:10.392Z,99858.81
2022-12-31T09:30:49.895Z,99863.06
2022-12-31T09:33:12.803Z,99858.84
2022-12-31T09:35:42.305Z,99855.47
2022-12-31T09:37:50.349Z,99877.03
2022-12-31T09:39:56.869Z,99882.22
2022-12-31T09:42:11.356Z,99878.81
2022-12-31T09:44:33.654Z,99880.41
2022-12-31T09:46:37.946Z,99879.66
2022-12-31T09:48:50.234Z,99877.91
2022-12-31T09:51:02.609Z,99904.66
2022-12-31T09:53:20.511Z,99897.72
2022-12-31T09:55:32.955Z,99896.03
2022-12-31T09:57:42.869Z,99909.84
2022-12-31T09:59:59.868Z,99887.41
2022-12-31T10:02:20.697Z,99885.66
2022-12-31T10:04:23.698Z,99902.06
2022-12-31T10:06:38.767Z,99880.50
2022-12-31T10:08:53.557Z,99866.69
2022-12-31T10:11:04.674Z,99868.38
2022-12-31T10:13:25.427Z,99870.13
2022-12-31T10:15:36.602Z,99866.75
2022-12-31T10:17:59.016Z,99865.00
2022-12-31T10:20:07.956Z,99867.59
2022-12-31T10:22:19.559Z,99868.44
2022-12-31T10:24:32.119Z,99869.28
2022-12-31T10:27:01.189Z,99861.56
2022-12-31T10:29:25.245Z,99865.88
2022-12-31T10:31:46.721Z,99866.78
2022-12-31T10:34:00.094Z,99872.81
2022-12-31T10:36:21.479Z,99866.69
2022-12-31T10:38:42.634Z,99882.19
2022-12-31T10:40:55.567Z,99885.66
2022-12-31T10:43:09.086Z,99860.63
2022-12-31T10:45:30.519Z,99876.16
2022-12-31T10:47:42.880Z,99870.19
2022-12-31T10:49:57.817Z,99848.63
2022-12-31T10:52:12.964Z,99862.41
2022-12-31T10:54:26.586Z,99840.00
2022-12-31T10:57:07.441Z,99856.41
2022-12-31T10:59:18.402Z,99861.53
2022-12-31T11:01:28.374Z,99868.44
2022-12-31T11:03:32.707Z,99865.88
2022-12-31T11:05:45.781Z,99871.06
2022-12-31T11:08:10.265Z,99855.53
2022-12-31T11:10:58.075Z,99857.25
2022-12-31T11:13:20.589Z,99853.84
2022-12-31T11:15:27.469Z,99851.38
2022-12-31T11:17:42.430Z,99861.66
2022-12-31T11:19:51.000Z,99855.66
2022-12-31T11:22:09.999Z,99860.81
2022-12-31T11:24:26.505Z,99866.00
2022-12-31T11:26:44.391Z,99865.97
2022-12-31T11:29:02.271Z,99866.03
2022-12-31T11:31:15.363Z,99866.91
2022-12-31T11:33:29.545Z,99861.75
2022-12-31T11:36:01.495Z,99862.63
2022-12-31T11:38:30.718Z,99859.19
2022-12-31T11:40:46.619Z,99842.78
2022-12-31T11:42:59.833Z,99847.06
2022-12-31T11:45:07.634Z,99844.47
2022-12-31T11:47:35.685Z,99847.09
2022-12-31T11:50:07.889Z,99842.75
2022-12-31T11:52:19.535Z,99842.75
2022-12-31T11:54:42.773Z,99848.84
2022-12-31T11:56:53.801Z,99841.09
2022-12-31T11:58:58.767Z,99834.22
2022-12-31T12:01:12.168Z,99822.19
2022-12-31T12:03:17.455Z,99824.75
2022-12-31T12:05:26.083Z,99818.72
2022-12-31T12:07:31.622Z,99827.31
2022-12-31T12:09:38.088Z,99827.31
2022-12-31T12:11:42.239Z,99822.19
2022-12-31T12:13:50.298Z,99809.22
2022-12-31T12:15:59.287Z,99812.69
2022-12-31T12:18:15.509Z,99812.69
2022-12-31T12:20:33.276Z,99804.06
2022-12-31T12:22:43.843Z,99814.41
2022-12-31T12:25:00.555Z,99808.38
2022-12-31T12:27:09.232Z,99796.31
2022-12-31T12:29:20.114Z,99798.94
2022-12-31T12:31:31.736Z,99791.16
2022-12-31T12:33:48.449Z,99810.09
2022-12-31T12:35:53.430Z,99796.38
2022-12-31T12:38:07.240Z,99798.13
2022-12-31T12:40:24.071Z,99786.09
2022-12-31T12:42:44.624Z,99792.09
2022-12-31T12:44:46.320Z,99779.13
2022-12-31T12:46:55.111Z,99791.16
2022-12-31T12:49:01.558Z,99788.66
2022-12-31T12:51:24.473Z,99796.44
2022-12-31T12:53:48.343Z,99776.66
2022-12-31T12:56:05.140Z,99780.94
2022-12-31T12:58:34.848Z,99788.66
2022-12-31T13:00:57.000Z,99806.72
2022-12-31T13:03:18.434Z,99787.78
2022-12-31T13:05:34.341Z,99800.69
2022-12-31T13:07:57.447Z,99788.66
2022-12-31T13:10:20.944Z,99795.56
2022-12-31T13:13:22.706Z,99795.53
2022-12-31T13:15:22.972Z,99786.06
2022-12-31T13:17:39.195Z,99804.16
2022-12-31T13:19:51.474Z,99790.41
2022-12-31T13:22:13.161Z,99824.84
2022-12-31T13:24:42.230Z,99801.53
2022-12-31T13:26:55.533Z,99806.72
2022-12-31T13:29:06.533Z,99795.53
2022-12-31T13:31:30.833Z,99781.72
2022-12-31T13:33:51.584Z,99780.00
2022-12-31T13:35:59.026Z,99780.81
2022-12-31T13:38:22.756Z,99780.09
2022-12-31T13:40:40.261Z,99764.56
2022-12-31T13:42:59.883Z,99773.16
2022-12-31T13:45:11.655Z,99766.28
2022-12-31T13:47:21.900Z,99756.78
2022-12-31T13:49:48.830Z,99757.63
2022-12-31T13:52:00.498Z,99784.34
2022-12-31T13:54:19.814Z,99742.13
2022-12-31T13:56:31.745Z,99743.88
2022-12-31T13:58:41.791Z,99753.34
2022-12-31T14:00:53.712Z,99748.16
2022-12-31T14:02:58.653Z,99743.84
2022-12-31T14:05:17.904Z,99749.03
2022-12-31T14:07:36.441Z,99744.78
2022-12-31T14:09:42.533Z,99777.50
2022-12-31T14:12:01.585Z,99753.38
2022-12-31T14:14:05.889Z,99773.16
2022-12-31T14:16:28.834Z,99767.16
2022-12-31T14:18:45.991Z,99749.97
2022-12-31T14:21:10.455Z,99745.63
2022-12-31T14:23:32.999Z,99742.22
2022-12-31T14:25:39.781Z,99746.50
2022-12-31T14:27:49.987Z,99744.75
2022-12-31T14:29:58.247Z,99748.22
2022-12-31T14:32:18.668Z,99737.88
2022-12-31T14:34:53.656Z,99751.66
2022-12-31T14:37:12.495Z,99768.09
2022-12-31T14:39:18.275Z,99756.06
2022-12-31T14:41:39.507Z,99756.00
2022-12-31T14:43:59.089Z,99760.31
2022-12-31T14:46:13.643Z,99765.47
2022-12-31T14:48:22.247Z,99764.63
2022-12-31T14:50:28.087Z,99757.72
2022-12-31T14:52:34.114Z,99766.34
2022-12-31T14:54:37.956Z,99756.94
2022-12-31T14:56:44.319Z,99753.50
2022-12-31T14:58:56.267Z,99753.50
2022-12-31T15:01:03.320Z,99743.16
2022-12-31T15:03:23.254Z,99740.59
2022-12-31T15:05:30.103Z,99755.22
2022-12-31T15:07:49.060Z,99753.50
2022-12-31T15:10:01.973Z,99744.91
2022-12-31T15:12:05.307Z,99738.84
2022-12-31T15:14:20.067Z,99730.25
2022-12-31T15:16:36.842Z,99726.81
2022-12-31T15:18:58.745Z,99751.72
2022-12-31T15:21:40.309Z,99745.69
2022-12-31T15:23:43.916Z,99733.66
2022-12-31T15:25:52.017Z,99756.06
2022-12-31T15:27:55.315Z,99740.56
2022-12-31T15:29:57.341Z,99748.25
2022-12-31T15:32:04.722Z,99747.41
2022-12-31T15:34:25.380Z,99755.19
2022-12-31T15:36:39.159Z,99745.75
2022-12-31T15:38:44.108Z,99753.47
2022-12-31T15:40:51.669Z,99766.41
2022-12-31T15:43:12.981Z,99759.53
2022-12-31T15:45:28.280Z,99778.44
2022-12-31T15:47:37.944Z,99769.84
2022-12-31T15:50:00.804Z,99771.53
2022-12-31T15:52:08.344Z,99775.88
2022-12-31T15:54:25.785Z,99792.22
2022-12-31T15:56:36.754Z,99781.06
2022-12-31T15:58:47.751Z,99785.38
2022-12-31T16:01:15.950Z,99784.50
2022-12-31T16:03:25.702Z,99761.28
2022-12-31T16:05:37.740Z,99775.94
2022-12-31T16:07:43.511Z,99784.53
2022-12-31T16:09:52.195Z,99800.88
2022-12-31T16:12:10.480Z,99781.97
2022-12-31T16:14:26.483Z,99787.16
2022-12-31T16:16:34.605Z,99779.38
2022-12-31T16:18:53.442Z,99775.09
2022-12-31T16:21:00.628Z,99783.69
2022-12-31T16:23:21.660Z,99775.94
2022-12-31T16:25:31.977Z,99767.34
2022-12-31T16:27:37.367Z,99768.22
2022-12-31T16:29:46.439Z,99772.50
2022-12-31T16:31:54.643Z,99752.72
2022-12-31T16:34:12.462Z,99768.22
2022-12-31T16:36:41.197Z,99781.13
2022-12-31T16:38:45.275Z,99777.69
2022-12-31T16:41:10.417Z,99794.03
2022-12-31T16:45:34.073Z,99770.81
2022-12-31T16:47:46.471Z,99775.97
2022-12-31T16:50:21.991Z,99766.50
2022-12-31T16:52:32.042Z,99773.38
2022-12-31T16:54:42.625Z,99777.69
2022-12-31T16:56:46.125Z,99781.97
2022-12-31T16:58:49.739Z,99780.28
2022-12-31T17:00:57.022Z,99782.84
2022-12-31T17:03:10.375Z,99782.00
2022-12-31T17:05:27.015Z,99805.19
2022-12-31T17:07:31.709Z,99769.09
2022-12-31T17:09:42.935Z,99785.41
2022-12-31T17:12:10.855Z,99780.25
2022-12-31T17:14:22.171Z,99781.13
2022-12-31T17:16:25.174Z,99786.28
2022-12-31T17:18:37.009Z,99778.56
2022-12-31T17:20:41.195Z,99777.72
2022-12-31T17:22:46.497Z,99779.41
2022-12-31T17:24:52.515Z,99777.69
2022-12-31T17:26:57.645Z,99782.00
2022-12-31T17:29:09.075Z,99782.84
2022-12-31T17:31:45.019Z,99773.38
2022-12-31T17:33:54.416Z,99772.50
2022-12-31T17:36:15.708Z,99783.69
2022-12-31T17:38:29.338Z,99780.25
2022-12-31T17:40:51.358Z,99787.09
2022-12-31T17:42:53.524Z,99781.97
2022-12-31T17:45:00.556Z,99778.53
2022-12-31T17:47:05.052Z,99783.69
2022-12-31T17:49:15.172Z,99768.22
2022-12-31T17:51:24.167Z,99781.97
2022-12-31T17:53:26.625Z,99765.63
2022-12-31T17:55:31.289Z,99769.94
2022-12-31T17:57:38.108Z,99786.22
2022-12-31T17:59:50.930Z,99771.63
2022-12-31T18:02:05.637Z,99774.19
2022-12-31T18:04:17.567Z,99763.00
2022-12-31T18:06:26.350Z,99773.34
2022-12-31T18:08:30.343Z,99775.06
2022-12-31T18:10:36.609Z,99775.91
2022-12-31T18:12:44.946Z,99792.25
2022-12-31T18:17:07.199Z,99775.91
2022-12-31T18:19:54.132Z,99765.56
2022-12-31T18:21:42.715Z,99766.41
2022-12-31T18:23:51.024Z,99766.41
2022-12-31T18:25:56.192Z,99772.44
2022-12-31T18:28:00.122Z,99772.38
2022-12-31T18:30:07.036Z,99783.59
2022-12-31T18:32:25.098Z,99765.50
2022-12-31T18:34:28.986Z,99767.25
2022-12-31T18:36:38.100Z,99764.69
2022-12-31T18:38:40.013Z,99757.75
2022-12-31T18:40:47.536Z,99773.25
2022-12-31T18:42:50.422Z,99774.94
2022-12-31T18:44:53.369Z,99799.09
2022-12-31T18:46:58.340Z,99784.44
2022-12-31T18:49:00.883Z,99784.47
2022-12-31T18:51:04.267Z,99774.09
2022-12-31T18:53:09.291Z,99780.13
2022-12-31T18:55:25.859Z,99778.41
2022-12-31T18:57:29.434Z,99774.97
2022-12-31T18:59:33.731Z,99778.41
2022-12-31T19:01:43.672Z,99781.88
2022-12-31T19:03:53.412Z,99789.63
2022-12-31T19:06:05.229Z,99824.03
2022-12-31T19:08:08.249Z,99799.09
2022-12-31T19:10:16.786Z,99805.97
2022-12-31T19:12:21.402Z,99799.88
2022-12-31T19:14:25.905Z,99814.53
2022-12-31T19:16:31.280Z,99782.69
2022-12-31T19:18:38.554Z,99795.63
2022-12-31T19:20:46.950Z,99798.25
2022-12-31T19:22:50.395Z,99816.28
2022-12-31T19:24:54.830Z,99787.84
2022-12-31T19:26:58.874Z,99807.66
2022-12-31T19:29:03.167Z,99804.16
2022-12-31T19:31:08.449Z,99815.34
2022-12-31T19:33:19.402Z,99817.03
2022-12-31T19:35:35.595Z,99821.31
2022-12-31T19:37:38.762Z,99818.72
2022-12-31T19:39:46.947Z,99818.78
2022-12-31T19:41:58.403Z,99824.78
2022-12-31T19:44:02.943Z,99833.34
2022-12-31T19:46:17.100Z,99848.84
2022-12-31T19:48:28.707Z,99851.44
2022-12-31T19:50:34.484Z,99847.97
2022-12-31T19:52:43.628Z,99863.47
2022-12-31T19:54:49.404Z,99865.19
2022-12-31T19:56:58.006Z,99856.53
2022-12-31T19:59:11.813Z,99880.66
2022-12-31T20:01:22.815Z,99879.72
2022-12-31T20:03:28.437Z,99899.56
2022-12-31T20:05:34.485Z,99879.84
2022-12-31T20:07:38.014Z,99863.44
2022-12-31T20:09:41.415Z,99865.16
2022-12-31T20:11:46.061Z,99884.91
2022-12-31T20:13:53.063Z,99848.72
2022-12-31T20:15:56.293Z,99885.78
2022-12-31T20:18:02.352Z,99884.13
2022-12-31T20:20:08.604Z,99881.47
2022-12-31T20:22:14.629Z,99876.34
2022-12-31T20:24:21.866Z,99916.00
2022-12-31T20:26:27.184Z,99898.75
2022-12-31T20:28:31.003Z,99905.63
2022-12-31T20:30:40.289Z,99921.16
2022-12-31T20:32:43.684Z,99922.84
2022-12-31T20:34:47.157Z,99917.72
2022-12-31T20:36:48.777Z,99915.94
2022-12-31T20:38:50.628Z,99909.94
2022-12-31T20:41:12.082Z,99922.00
2022-12-31T20:43:14.426Z,99943.56
2022-12-31T20:45:16.471Z,99985.78
2022-12-31T20:47:18.357Z,99953.00
2022-12-31T20:49:37.231Z,99940.13
2022-12-31T20:51:44.995Z,99940.97
2022-12-31T20:53:55.809Z,99981.47
2022-12-31T20:56:08.405Z,99947.03
2022-12-31T20:58:12.848Z,99965.97
2022-12-31T21:00:14.946Z,99946.16
2022-12-31T21:02:21.953Z,99968.50
2022-12-31T21:04:26.752Z,99959.91
2022-12-31T21:06:32.920Z,99975.41
2022-12-31T21:08:37.227Z,99976.31
2022-12-31T21:10:40.410Z,99977.97
2022-12-31T21:12:44.590Z,99980.63
2022-12-31T21:14:50.418Z,100002.97
2022-12-31T21:16:54.135Z,99967.66
2022-12-31T21:19:04.122Z,99993.53
2022-12-31T21:21:07.719Z,99969.38
2022-12-31T21:23:09.443Z,99980.59
2022-12-31T21:25:13.315Z,100027.13
2022-12-31T21:27:18.164Z,99986.63
2022-12-31T21:29:22.439Z,99996.97
2022-12-31T21:31:31.232Z,100002.13
2022-12-31T21:33:36.633Z,100028.84
2022-12-31T21:35:48.655Z,100005.56
2022-12-31T21:38:05.598Z,99986.63
2022-12-31T21:40:10.591Z,99984.91
2022-12-31T21:42:15.064Z,100022.81
2022-12-31T21:44:21.616Z,99992.66
2022-12-31T21:46:24.949Z,99993.53
2022-12-31T21:48:32.846Z,99994.41
2022-12-31T21:50:37.754Z,99996.13
2022-12-31T21:52:41.883Z,100002.13
2022-12-31T21:55:00.325Z,99994.41
2022-12-31T21:57:06.240Z,100018.50
2022-12-31T21:59:18.850Z,100007.31
2022-12-31T22:01:31.561Z,100018.50
2022-12-31T22:03:37.501Z,99996.97
2022-12-31T22:05:46.887Z,100018.53
2022-12-31T22:07:50.185Z,100021.13
2022-12-31T22:09:51.803Z,100009.06
2022-12-31T22:11:53.745Z,100003.03
2022-12-31T22:13:56.593Z,100015.94
2022-12-31T22:16:04.619Z,100015.06
2022-12-31T22:18:07.587Z,100007.31
2022-12-31T22:20:26.956Z,100011.63
2022-12-31T22:22:29.359Z,100023.66
2022-12-31T22:24:31.820Z,100046.06
2022-12-31T22:26:34.519Z,100049.50
2022-12-31T22:28:40.488Z,100028.84
2022-12-31T22:30:42.508Z,100047.75
2022-12-31T22:32:44.489Z,100034.00
2022-12-31T22:34:46.417Z,100033.13
2022-12-31T22:36:48.314Z,100037.44
2022-12-31T22:38:51.798Z,100046.06
2022-12-31T22:41:02.247Z,100041.75
2022-12-31T22:43:04.156Z,100049.50
2022-12-31T22:45:09.595Z,100067.59
2022-12-31T22:47:11.754Z,100049.50
2022-12-31T22:49:15.391Z,100042.63
2022-12-31T22:51:19.040Z,100054.66
2022-12-31T22:53:22.961Z,100080.50
2022-12-31T22:55:27.436Z,100085.66
2022-12-31T22:57:30.321Z,100066.72
2022-12-31T22:59:33.878Z,100072.72
2022-12-31T23:01:37.633Z,100068.44
2022-12-31T23:03:42.723Z,100077.91
2022-12-31T23:05:55.240Z,100088.25
2022-12-31T23:08:06.090Z,100085.63
2022-12-31T23:10:23.520Z,100098.53
2022-12-31T23:12:28.567Z,100091.66
2022-12-31T23:14:40.484Z,100093.38
2022-12-31T23:16:53.540Z,100095.94
2022-12-31T23:19:07.366Z,100099.41
2022-12-31T23:21:20.631Z,100093.41
2022-12-31T23:23:26.194Z,100105.47
2022-12-31T23:25:29.078Z,100112.31
2022-12-31T23:27:32.129Z,100095.09
2022-12-31T23:29:47.704Z,100100.28
2022-12-31T23:31:49.761Z,100116.59
2022-12-31T23:33:51.560Z,100106.28
2022-12-31T23:36:04.049Z,100101.13
2022-12-31T23:38:05.726Z,100102.84
2022-12-31T23:40:08.771Z,100102.00
2022-12-31T23:42:10.892Z,100106.31
2022-12-31T23:44:12.538Z,100117.47
2022-12-31T23:46:15.393Z,100105.44
2022-12-31T23:48:17.087Z,100121.75
2022-12-31T23:50:18.748Z,100101.13
2022-12-31T23:52:20.595Z,100103.69
2022-12-31T23:54:22.335Z,100122.59
2022-12-31T23:56:24.374Z,100120.88
2022-12-31T23:58:26.207Z,100115.75
